Time;durP1;ratioP1;P1;durP2;ratioP2;P2;SDS_P1;SDS_P2;PMS_P1;PMS_P2;Temp;Humidity;BMP_temperature;BMP_pressure;BME280_temperature;BME280_humidity;BME280_pressure;Samples;Min_cycle;Max_cycle;Signal;HPM_P1;HPM_P2
2021/05/29 00:01:46;;;;;;;;;2.00;2.00;;;;;20.05;38.40;100473.00;4991289;28;8898;-48
2021/05/29 00:04:11;;;;;;;;;1.00;1.00;;;;;20.04;38.41;100465.88;4997003;28;8868;-47
2021/05/29 00:06:36;;;;;;;;;1.75;1.75;;;;;20.15;38.21;100460.16;4992820;28;9126;-48
2021/05/29 00:09:02;;;;;;;;;1.00;1.00;;;;;20.08;38.27;100457.84;4985725;28;8748;-49
2021/05/29 00:11:27;;;;;;;;;1.00;1.00;;;;;20.14;38.22;100461.25;4995061;28;9615;-49
2021/05/29 00:13:53;;;;;;;;;1.75;1.75;;;;;20.28;38.08;100467.50;4996938;28;8843;-46
2021/05/29 00:16:18;;;;;;;;;1.00;1.00;;;;;20.30;37.95;100464.41;4994149;28;8808;-48
2021/05/29 00:18:43;;;;;;;;;2.00;2.00;;;;;20.30;37.88;100478.13;4993170;28;8788;-47
2021/05/29 00:21:09;;;;;;;;;1.00;1.00;;;;;20.32;37.92;100473.16;4995369;28;8845;-50
2021/05/29 00:23:35;;;;;;;;;1.00;1.00;;;;;20.21;37.84;100461.63;4996285;28;8802;-49
2021/05/29 00:26:00;;;;;;;;;1.00;1.00;;;;;20.24;37.87;100477.44;4977582;28;8807;-48
2021/05/29 00:28:26;;;;;;;;;1.00;1.00;;;;;20.31;37.90;100477.81;4976678;28;8884;-48
2021/05/29 00:30:51;;;;;;;;;1.75;1.75;;;;;20.24;38.08;100486.50;4978437;28;8811;-49
2021/05/29 00:33:16;;;;;;;;;1.00;1.00;;;;;20.18;38.21;100479.50;4983987;28;8895;-48
2021/05/29 00:35:42;;;;;;;;;2.00;2.00;;;;;20.07;38.19;100494.59;4994216;28;8865;-49
2021/05/29 00:38:08;;;;;;;;;1.00;1.00;;;;;20.17;38.24;100488.84;4984193;28;8826;-48
2021/05/29 00:40:35;;;;;;;;;2.00;2.00;;;;;20.02;38.37;100495.50;4997075;28;8805;-46
2021/05/29 00:43:01;;;;;;;;;2.00;2.00;;;;;20.14;38.27;100492.22;4992396;28;9187;-47
2021/05/29 00:45:27;;;;;;;;;2.00;2.00;;;;;20.18;37.99;100489.66;5001089;28;8803;-49
2021/05/29 00:47:53;;;;;;;;;1.00;1.00;;;;;20.20;38.04;100492.91;4998534;28;8820;-48
2021/05/29 00:50:18;;;;;;;;;1.60;1.60;;;;;20.21;37.95;100499.97;4997415;28;8822;-49
2021/05/29 00:52:44;;;;;;;;;1.00;1.00;;;;;20.20;37.96;100499.19;4995879;28;8792;-48
2021/05/29 00:55:14;;;;;;;;;1.20;1.20;;;;;20.20;37.96;100509.34;4996469;28;8820;-48
2021/05/29 00:57:41;;;;;;;;;1.00;1.00;;;;;20.18;38.25;100500.63;4990362;28;8763;-49
2021/05/29 01:00:08;;;;;;;;;2.00;2.00;;;;;20.09;38.23;100508.78;4996311;28;8768;-47
2021/05/29 01:02:33;;;;;;;;;1.00;1.00;;;;;20.16;38.21;100513.81;4996160;28;9005;-49
2021/05/29 01:04:59;;;;;;;;;1.00;1.00;;;;;20.01;38.38;100513.03;5002540;28;8855;-48
2021/05/29 01:07:24;;;;;;;;;1.00;1.00;;;;;20.13;38.05;100517.97;4996125;28;8926;-48
2021/05/29 01:09:50;;;;;;;;;1.00;1.00;;;;;20.16;38.14;100520.09;4999261;28;9556;-49
2021/05/29 01:12:18;;;;;;;;;2.00;2.00;;;;;20.18;38.02;100528.00;4994655;28;8767;-48
2021/05/29 01:14:54;;;;;;;;;2.00;2.00;;;;;20.19;37.98;100524.13;4998401;28;8796;-49
2021/05/29 01:17:20;;;;;;;;;1.60;1.60;;;;;20.17;38.20;100534.59;4997519;28;8804;-48
2021/05/29 01:19:46;;;;;;;;;1.00;1.00;;;;;20.17;38.12;100529.91;4996536;28;8794;-48
2021/05/29 01:22:12;;;;;;;;;1.00;1.00;;;;;20.17;38.05;100529.91;4983138;28;8884;-48
2021/05/29 01:24:38;;;;;;;;;1.00;1.00;;;;;20.17;38.11;100529.13;4993170;28;8856;-48
2021/05/29 01:27:05;;;;;;;;;1.00;1.00;;;;;20.07;38.15;100515.66;4993106;28;8802;-48
2021/05/29 01:29:30;;;;;;;;;1.00;1.00;;;;;20.07;38.18;100521.16;4998049;28;8818;-47
2021/05/29 01:32:04;;;;;;;;;1.40;1.40;;;;;20.11;38.27;100522.97;5001094;28;8811;-46
2021/05/29 01:34:35;;;;;;;;;1.00;1.00;;;;;20.11;38.31;100524.91;4998520;28;8793;-50
2021/05/29 01:37:02;;;;;;;;;1.00;1.00;;;;;19.99;38.50;100525.44;4994149;28;8776;-48
2021/05/29 01:39:27;;;;;;;;;1.40;1.40;;;;;20.08;38.45;100525.50;4996122;28;8783;-49
2021/05/29 01:41:54;;;;;;;;;2.00;2.00;;;;;20.11;38.14;100528.44;4979311;28;8857;-46
2021/05/29 01:44:22;;;;;;;;;1.00;1.00;;;;;19.89;38.45;100518.25;5003155;28;8902;-48
2021/05/29 01:46:47;;;;;;;;;1.20;1.20;;;;;19.92;38.50;100531.34;4997979;28;8838;-46
2021/05/29 01:49:12;;;;;;;;;1.75;1.75;;;;;19.91;38.39;100535.22;4993822;28;8799;-46
2021/05/29 01:51:37;;;;;;;;;1.00;1.00;;;;;19.95;38.54;100529.94;4998739;28;8768;-48
2021/05/29 01:54:03;;;;;;;;;1.00;1.00;;;;;19.89;38.64;100531.16;4997285;28;8866;-48
2021/05/29 01:56:28;;;;;;;;;2.00;2.00;;;;;20.04;38.31;100528.88;5003738;28;8967;-49
2021/05/29 01:58:54;;;;;;;;;2.00;2.00;;;;;20.08;38.27;100531.00;4998378;28;9764;-49
2021/05/29 02:01:19;;;;;;;;;1.00;1.00;;;;;20.08;38.24;100533.72;4998457;28;8802;-48
2021/05/29 02:03:45;;;;;;;;;2.00;2.00;;;;;20.04;38.36;100533.53;4998854;28;8783;-49
2021/05/29 02:06:12;;;;;;;;;1.40;1.40;;;;;20.08;38.25;100536.47;4996212;28;8768;-49
2021/05/29 02:08:38;;;;;;;;;1.00;1.00;;;;;19.94;38.32;100542.78;5000520;28;8796;-46
2021/05/29 02:11:04;;;;;;;;;1.00;1.00;;;;;19.80;38.42;100506.44;4995934;28;8866;-49
2021/05/29 02:13:33;;;;;;;;;1.20;1.20;;;;;19.89;38.43;100545.63;4994042;28;8889;-48
2021/05/29 02:15:59;;;;;;;;;1.00;1.00;;;;;19.98;38.52;100554.75;4993916;28;8814;-47
2021/05/29 02:18:25;;;;;;;;;1.00;1.00;;;;;20.03;38.16;100560.13;5003551;28;8768;-49
2021/05/29 02:20:58;;;;;;;;;1.75;1.75;;;;;20.04;38.19;100566.41;4996966;28;8865;-48
2021/05/29 02:23:26;;;;;;;;;2.00;2.00;;;;;20.02;38.40;100563.97;5005846;28;8854;-47
2021/05/29 02:25:54;;;;;;;;;1.80;1.80;;;;;19.76;38.62;100546.50;4998754;28;8820;-48
2021/05/29 02:28:21;;;;;;;;;1.20;1.20;;;;;19.82;38.54;100562.50;4998761;28;9535;-48
2021/05/29 02:30:48;;;;;;;;;2.00;2.00;;;;;19.82;38.47;100565.25;4999806;28;8776;-48
2021/05/29 02:33:13;;;;;;;;;1.00;1.00;;;;;19.82;38.62;100569.91;4996565;28;8760;-47
2021/05/29 02:35:39;;;;;;;;;2.00;2.00;;;;;19.81;38.87;100577.31;5002157;28;8914;-46
2021/05/29 02:38:06;;;;;;;;;1.00;1.00;;;;;19.80;38.64;100574.88;5000540;28;8800;-46
2021/05/29 02:40:32;;;;;;;;;1.00;1.00;;;;;19.78;38.66;100574.38;4995099;28;8791;-48
2021/05/29 02:42:58;;;;;;;;;1.60;1.60;;;;;19.95;38.58;100580.03;5000690;28;8799;-48
2021/05/29 02:45:23;;;;;;;;;2.00;2.00;;;;;19.83;38.68;100583.28;4996432;28;8774;-48
2021/05/29 02:47:49;;;;;;;;;1.60;1.60;;;;;19.82;38.58;100587.16;5002187;28;8910;-48
2021/05/29 02:50:15;;;;;;;;;1.00;1.00;;;;;19.92;38.51;100586.09;5000209;28;8889;-48
2021/05/29 02:52:41;;;;;;;;;1.50;1.50;;;;;19.95;38.34;100585.50;4994970;28;8775;-47
2021/05/29 02:55:10;;;;;;;;;1.00;1.00;;;;;19.88;38.48;100598.78;4997403;28;8835;-48
2021/05/29 02:57:36;;;;;;;;;1.00;1.00;;;;;19.88;38.56;100596.06;5001328;28;8780;-48
2021/05/29 03:00:08;;;;;;;;;1.40;1.40;;;;;19.90;38.43;100593.00;4993460;28;9589;-46
2021/05/29 03:02:33;;;;;;;;;2.00;2.00;;;;;19.94;38.33;100594.81;5003175;28;8854;-49
2021/05/29 03:04:59;;;;;;;;;2.00;2.00;;;;;19.92;38.50;100594.31;4980306;28;8802;-49
2021/05/29 03:07:24;;;;;;;;;2.00;2.00;;;;;19.82;38.60;100597.28;4978710;28;8802;-48
2021/05/29 03:09:49;;;;;;;;;2.75;2.75;;;;;19.76;38.59;100598.50;4993708;28;8796;-48
2021/05/29 03:12:15;;;;;;;;;1.75;1.75;;;;;19.74;38.76;100601.56;4990543;28;8913;-49
2021/05/29 03:14:40;;;;;;;;;1.00;1.00;;;;;19.77;38.69;100611.06;4987154;28;8799;-49
2021/05/29 03:17:05;;;;;;;;;2.00;2.00;;;;;19.76;38.77;100604.78;5005011;28;8905;-48
2021/05/29 03:19:31;;;;;;;;;1.25;1.25;;;;;19.75;38.75;100608.66;4996950;28;8834;-47
2021/05/29 03:21:56;;;;;;;;;1.00;1.00;;;;;19.80;38.53;100615.94;4990821;28;8834;-46
2021/05/29 03:24:21;;;;;;;;;2.00;2.00;;;;;19.75;38.62;100610.56;4980424;28;8775;-48
2021/05/29 03:26:47;;;;;;;;;1.00;1.00;;;;;19.76;38.66;100617.66;4997153;28;8808;-47
2021/05/29 03:29:12;;;;;;;;;1.00;1.00;;;;;19.76;38.65;100623.16;4986818;28;8890;-49
2021/05/29 03:31:38;;;;;;;;;1.25;1.25;;;;;19.75;38.73;100621.50;4991902;28;8800;-49
2021/05/29 03:34:03;;;;;;;;;2.00;2.00;;;;;19.81;38.72;100621.09;4990450;28;8799;-49
2021/05/29 03:36:28;;;;;;;;;1.75;1.75;;;;;19.88;38.60;100625.38;4979827;28;8841;-50
2021/05/29 03:38:54;;;;;;;;;1.25;1.25;;;;;19.80;38.63;100632.34;4984967;28;8813;-45
2021/05/29 03:41:19;;;;;;;;;1.00;1.00;;;;;19.83;38.55;100632.56;5004848;28;9624;-47
2021/05/29 03:43:45;;;;;;;;;2.00;2.00;;;;;19.76;38.63;100631.34;4995680;28;8878;-48
2021/05/29 03:46:10;;;;;;;;;1.00;1.00;;;;;19.86;38.55;100628.41;4995628;28;8834;-49
2021/05/29 03:48:36;;;;;;;;;1.40;1.40;;;;;19.92;38.34;100629.09;4995996;28;8818;-47
2021/05/29 03:51:01;;;;;;;;;1.25;1.25;;;;;19.93;38.43;100631.53;4992862;28;8704;-49
2021/05/29 03:53:27;;;;;;;;;1.00;1.00;;;;;19.88;38.17;100625.38;5000846;28;8901;-48
2021/05/29 03:55:54;;;;;;;;;1.50;1.50;;;;;19.89;38.40;100633.25;4996757;28;8875;-47
2021/05/29 03:58:19;;;;;;;;;2.00;2.00;;;;;19.90;38.50;100637.63;4996422;28;11489;-47
2021/05/29 04:00:44;;;;;;;;;2.00;2.00;;;;;19.78;38.64;100632.66;4999448;28;8849;-47
2021/05/29 04:03:11;;;;;;;;;1.50;1.50;;;;;19.73;38.82;100634.66;4993457;28;9436;-49
2021/05/29 04:05:36;;;;;;;;;2.00;2.00;;;;;19.74;38.64;100634.41;5001929;28;8827;-49
2021/05/29 04:08:01;;;;;;;;;2.00;2.00;;;;;19.75;38.56;100635.19;4994856;28;8983;-49
2021/05/29 04:10:30;;;;;;;;;1.75;1.75;;;;;19.75;38.73;100641.50;4994115;28;8795;-47
2021/05/29 04:12:56;;;;;;;;;1.80;1.80;;;;;19.76;38.78;100636.84;5001717;28;8777;-48
2021/05/29 04:15:23;;;;;;;;;1.00;1.00;;;;;19.75;38.65;100632.47;4995250;28;8878;-49
2021/05/29 04:17:49;;;;;;;;;2.00;2.00;;;;;19.76;38.67;100642.31;4995302;28;8787;-49
2021/05/29 04:20:18;;;;;;;;;1.00;1.00;;;;;19.70;38.63;100638.84;4999947;28;8844;-49
2021/05/29 04:22:43;;;;;;;;;2.00;2.00;;;;;19.71;38.64;100636.91;4996008;28;8792;-48
2021/05/29 04:25:12;;;;;;;;;1.00;1.00;;;;;19.85;38.51;100640.47;4991146;28;8794;-48
2021/05/29 04:27:39;;;;;;;;;2.00;2.00;;;;;19.88;38.38;100648.06;4978345;28;8790;-49
2021/05/29 04:30:07;;;;;;;;;1.00;1.00;;;;;19.87;38.33;100649.19;4973127;28;8755;-48
2021/05/29 04:32:32;;;;;;;;;1.00;1.00;;;;;19.88;38.37;100650.81;4977942;28;8812;-48
2021/05/29 04:34:58;;;;;;;;;1.50;1.00;;;;;19.90;38.48;100650.50;4990101;28;8823;-49
2021/05/29 04:37:23;;;;;;;;;1.00;1.00;;;;;19.86;38.27;100650.31;4987940;28;8811;-47
2021/05/29 04:39:48;;;;;;;;;1.00;1.00;;;;;19.86;38.45;100653.84;4994139;28;8819;-48
2021/05/29 04:42:14;;;;;;;;;2.00;2.00;;;;;19.89;38.25;100651.63;4994308;28;9670;-48
2021/05/29 04:44:39;;;;;;;;;2.25;2.25;;;;;19.88;38.41;100653.56;5001638;28;8981;-48
2021/05/29 04:47:04;;;;;;;;;2.00;2.00;;;;;19.90;38.38;100659.53;4993493;28;8840;-48
2021/05/29 04:49:30;;;;;;;;;1.75;1.75;;;;;19.90;38.41;100662.28;4997453;28;8827;-49
2021/05/29 04:51:57;;;;;;;;;1.75;1.75;;;;;19.91;38.35;100658.44;4996420;28;8780;-48
2021/05/29 04:54:23;;;;;;;;;1.00;1.00;;;;;19.91;38.25;100661.16;4991190;28;9542;-49
2021/05/29 04:56:48;;;;;;;;;1.00;1.00;;;;;19.90;38.43;100659.53;4994734;28;8835;-48
2021/05/29 04:59:14;;;;;;;;;1.00;1.00;;;;;19.88;38.26;100659.03;4998516;28;8793;-49
2021/05/29 05:01:39;;;;;;;;;1.00;1.00;;;;;19.88;38.29;100666.44;4991680;28;9511;-50
2021/05/29 05:04:05;;;;;;;;;2.00;2.00;;;;;19.85;38.51;100662.38;4997023;28;9362;-49
2021/05/29 05:06:30;;;;;;;;;2.00;2.00;;;;;19.81;38.47;100666.84;5003058;28;9560;-49
2021/05/29 05:08:56;;;;;;;;;1.00;1.00;;;;;19.72;38.69;100663.16;4994173;28;11778;-47
2021/05/29 05:11:22;;;;;;;;;1.60;1.60;;;;;19.72;38.62;100666.72;4999194;28;8921;-48
2021/05/29 05:13:47;;;;;;;;;1.00;1.00;;;;;19.74;38.63;100664.50;4995312;28;8827;-49
2021/05/29 05:16:13;;;;;;;;;2.00;2.00;;;;;19.89;38.37;100668.03;4996982;28;8857;-50
2021/05/29 05:18:39;;;;;;;;;2.80;2.00;;;;;19.90;38.48;100664.19;4997825;28;10221;-48
2021/05/29 05:21:05;;;;;;;;;1.00;1.00;;;;;19.87;38.31;100673.81;4998477;28;8835;-48
2021/05/29 05:23:30;;;;;;;;;2.00;2.00;;;;;19.91;38.19;100676.75;4997068;28;9673;-48
2021/05/29 05:25:56;;;;;;;;;2.00;2.00;;;;;19.79;38.39;100680.03;4993076;28;8862;-49
2021/05/29 05:28:27;;;;;;;;;1.50;1.50;;;;;19.66;38.62;100676.97;4997239;28;8796;-48
2021/05/29 05:31:02;;;;;;;;;1.00;1.00;;;;;19.80;38.62;100673.44;4993298;28;8822;-49
2021/05/29 05:33:28;;;;;;;;;2.00;2.00;;;;;19.80;38.65;100676.16;4994343;28;8786;-47
2021/05/29 05:35:53;;;;;;;;;1.00;1.00;;;;;19.84;38.47;100682.63;4993250;28;8814;-48
2021/05/29 05:38:20;;;;;;;;;2.00;2.00;;;;;19.82;38.30;100682.13;5002039;28;8807;-49
2021/05/29 05:40:45;;;;;;;;;1.40;1.40;;;;;19.85;38.29;100684.28;4994008;28;8838;-50
2021/05/29 05:43:12;;;;;;;;;1.75;1.75;;;;;19.86;38.26;100686.72;4997379;28;8792;-48
2021/05/29 05:45:37;;;;;;;;;1.20;1.20;;;;;19.77;38.36;100682.25;4999913;28;8918;-47
2021/05/29 05:48:03;;;;;;;;;1.00;1.00;;;;;19.79;38.49;100680.03;4993964;28;8800;-49
2021/05/29 05:50:29;;;;;;;;;2.00;2.00;;;;;19.70;38.61;100690.00;5000167;28;8800;-47
2021/05/29 05:52:55;;;;;;;;;1.80;1.80;;;;;19.78;38.47;100698.34;4995948;28;8820;-46
2021/05/29 05:55:20;;;;;;;;;2.00;2.00;;;;;19.76;38.40;100688.84;4998393;28;8816;-49
2021/05/29 05:57:45;;;;;;;;;1.75;1.75;;;;;19.72;38.39;100696.00;4998794;28;8788;-49
2021/05/29 06:00:14;;;;;;;;;2.00;2.00;;;;;19.72;38.49;100698.72;4994328;28;8775;-50
2021/05/29 06:02:42;;;;;;;;;2.00;2.00;;;;;19.71;38.54;100694.38;5000313;28;8831;-48
2021/05/29 06:05:08;;;;;;;;;1.80;1.80;;;;;19.71;38.67;100694.38;4997869;28;8823;-47
2021/05/29 06:07:33;;;;;;;;;2.00;2.00;;;;;19.67;38.47;100697.72;4997058;28;9581;-48
2021/05/29 06:09:58;;;;;;;;;1.75;1.75;;;;;19.68;38.56;100699.34;5001879;28;8858;-49
2021/05/29 06:12:24;;;;;;;;;2.00;2.00;;;;;19.70;38.56;100698.22;4995936;28;9627;-48
2021/05/29 06:20:17;;;;;;;;;1.60;1.60;;;;;19.75;38.41;100701.72;4998589;28;8812;-49
2021/05/29 06:22:43;;;;;;;;;2.25;2.25;;;;;19.74;38.46;100704.75;4997524;28;8790;-49
2021/05/29 06:25:14;;;;;;;;;2.00;2.00;;;;;19.82;38.39;100701.31;4996961;28;8882;-50
2021/05/29 06:27:39;;;;;;;;;2.00;2.00;;;;;19.81;38.50;100692.28;4995309;28;8933;-48
2021/05/29 06:30:07;;;;;;;;;1.75;1.75;;;;;19.80;38.47;100695.31;4995460;28;8784;-50
2021/05/29 06:32:32;;;;;;;;;2.00;2.00;;;;;19.74;38.43;100696.56;4998620;28;8814;-48
2021/05/29 06:34:58;;;;;;;;;2.00;2.00;;;;;19.78;38.57;100700.28;4997334;28;9574;-49
2021/05/29 06:37:23;;;;;;;;;1.75;1.75;;;;;19.74;38.44;100697.34;4996262;28;8932;-48
2021/05/29 06:39:49;;;;;;;;;1.75;1.75;;;;;19.73;38.44;100692.16;4998508;28;9606;-49
2021/05/29 06:42:14;;;;;;;;;2.00;2.00;;;;;19.78;38.39;100705.78;4997552;28;8799;-49
2021/05/29 06:44:40;;;;;;;;;1.75;1.75;;;;;19.83;38.58;100691.97;5004402;28;8792;-54
2021/05/29 06:47:06;;;;;;;;;2.00;2.00;;;;;19.85;38.80;100700.69;4990450;28;8820;-50
2021/05/29 06:49:31;;;;;;;;;2.20;2.20;;;;;19.75;38.72;100701.72;4981019;28;8797;-49
2021/05/29 06:52:01;;;;;;;;;2.00;2.00;;;;;19.74;38.80;100691.06;4994363;28;8870;-50
2021/05/29 06:59:59;;;;;;;;;2.00;2.00;;;;;19.81;38.70;100699.69;4974484;28;8779;-51
2021/05/29 07:02:24;;;;;;;;;1.50;1.50;;;;;19.78;38.77;100694.81;4971240;28;8797;-51
2021/05/29 07:04:51;;;;;;;;;2.00;2.00;;;;;19.78;38.56;100703.03;4976518;28;8821;-66
2021/05/29 07:07:17;;;;;;;;;2.00;2.00;;;;;19.78;38.73;100708.50;4988321;28;8832;-46
2021/05/29 07:09:47;;;;;;;;;2.00;2.00;;;;;19.89;39.12;100712.66;4996707;28;8820;-52
2021/05/29 07:12:12;;;;;;;;;2.00;2.00;;;;;19.79;38.80;100708.22;4998307;28;8806;-53
2021/05/29 07:14:38;;;;;;;;;1.50;1.50;;;;;19.80;39.07;100714.47;4993826;28;8882;-53
2021/05/29 07:17:06;;;;;;;;;2.00;2.00;;;;;19.79;38.63;100707.41;4989022;28;8862;-53
2021/05/29 07:19:31;;;;;;;;;2.20;2.20;;;;;19.76;38.80;100711.53;4989864;28;8826;-54
2021/05/29 07:21:57;;;;;;;;;2.00;2.00;;;;;19.74;38.90;100718.44;4991365;28;8785;-54
2021/05/29 07:24:23;;;;;;;;;2.00;2.00;;;;;19.81;38.79;100716.94;4989512;28;8779;-54
2021/05/29 07:26:49;;;;;;;;;2.00;2.00;;;;;19.78;38.95;100711.25;4992466;28;8828;-54
2021/05/29 07:29:14;;;;;;;;;2.60;2.40;;;;;19.90;38.59;100713.50;4994190;28;8921;-53
2021/05/29 07:31:40;;;;;;;;;2.25;2.25;;;;;19.88;38.67;100711.06;4994568;28;8933;-54
2021/05/29 07:34:06;;;;;;;;;1.60;1.60;;;;;19.84;38.62;100720.97;4981257;28;9534;-54
2021/05/29 07:36:31;;;;;;;;;2.00;2.00;;;;;19.88;38.68;100721.19;4979119;28;8909;-54
2021/05/29 07:38:56;;;;;;;;;3.00;2.00;;;;;19.89;38.60;100718.13;4979250;28;8819;-54
2021/05/29 07:41:22;;;;;;;;;1.75;1.75;;;;;19.91;38.65;100721.41;4974307;28;9692;-54
2021/05/29 07:43:48;;;;;;;;;2.75;2.75;;;;;19.91;38.59;100726.03;4990242;28;8799;-54
2021/05/29 07:46:15;;;;;;;;;2.00;2.00;;;;;19.91;38.51;100724.13;4990720;28;8816;-54
2021/05/29 07:48:41;;;;;;;;;1.40;1.40;;;;;19.90;38.42;100722.50;4992543;28;8825;-53
2021/05/29 07:51:06;;;;;;;;;2.00;2.00;;;;;19.90;38.43;100724.44;4995494;28;8787;-54
2021/05/29 07:53:31;;;;;;;;;1.00;1.00;;;;;19.73;38.72;100725.00;4993092;28;8857;-53
2021/05/29 07:55:58;;;;;;;;;2.00;2.00;;;;;19.70;38.90;100720.97;4994375;28;8855;-54
2021/05/29 07:58:24;;;;;;;;;2.00;2.00;;;;;19.59;38.81;100717.56;4985492;28;8940;-54
2021/05/29 08:00:51;;;;;;;;;2.00;2.00;;;;;19.71;38.77;100719.03;4984726;28;8893;-54
2021/05/29 08:03:22;;;;;;;;;1.40;1.40;;;;;19.73;38.91;100733.22;4996709;28;8887;-53
2021/05/29 08:05:50;;;;;;;;;2.00;2.00;;;;;19.75;38.68;100733.75;4995169;28;8785;-54
2021/05/29 08:08:15;;;;;;;;;1.60;1.60;;;;;19.71;38.64;100735.44;4990906;28;8933;-53
2021/05/29 08:10:41;;;;;;;;;2.00;2.00;;;;;19.70;38.92;100731.91;4995922;28;9638;-54
2021/05/29 08:13:06;;;;;;;;;2.00;2.00;;;;;19.77;38.74;100742.47;4989300;28;9530;-54
2021/05/29 08:15:32;;;;;;;;;2.25;2.25;;;;;19.68;38.96;100739.59;4994443;28;8846;-54
2021/05/29 08:17:57;;;;;;;;;1.25;1.25;;;;;19.63;39.07;100740.50;4991940;28;8910;-54
2021/05/29 08:20:22;;;;;;;;;2.00;2.00;;;;;19.70;38.94;100736.53;4996022;28;8913;-54
2021/05/29 08:22:48;;;;;;;;;2.00;2.00;;;;;19.68;38.87;100740.41;4993336;28;8792;-54
2021/05/29 08:25:13;;;;;;;;;2.00;1.25;;;;;19.67;38.79;100725.09;4992490;28;8936;-54
2021/05/29 08:27:39;;;;;;;;;2.00;2.00;;;;;19.70;38.83;100729.16;4997096;28;8797;-54
2021/05/29 08:30:05;;;;;;;;;2.50;2.50;;;;;19.67;38.79;100735.25;4988988;28;11224;-54
2021/05/29 08:32:30;;;;;;;;;2.00;2.00;;;;;19.68;39.00;100734.09;4971972;28;8823;-54
2021/05/29 08:34:56;;;;;;;;;2.00;2.00;;;;;19.70;38.82;100731.06;4992386;28;8837;-54
2021/05/29 08:37:21;;;;;;;;;2.00;2.00;;;;;19.80;38.64;100730.91;4992050;28;8821;-54
2021/05/29 08:39:47;;;;;;;;;1.50;1.50;;;;;19.84;38.70;100734.66;4987636;28;9545;-53
2021/05/29 08:42:12;;;;;;;;;2.00;2.00;;;;;19.75;38.66;100733.75;4974406;28;9516;-54
2021/05/29 08:44:38;;;;;;;;;2.00;2.00;;;;;19.84;38.46;100738.22;4978027;28;8847;-54
2021/05/29 08:47:04;;;;;;;;;2.25;2.25;;;;;19.71;38.71;100744.47;4994114;28;8823;-55
2021/05/29 08:49:29;;;;;;;;;1.40;1.40;;;;;19.74;38.71;100732.13;4994716;28;8796;-55
2021/05/29 08:51:57;;;;;;;;;2.00;2.00;;;;;19.69;38.84;100738.47;4992308;28;8831;-54
2021/05/29 08:54:23;;;;;;;;;2.00;2.00;;;;;19.68;38.82;100725.91;4999378;28;8954;-54
2021/05/29 08:56:49;;;;;;;;;1.80;1.80;;;;;19.73;38.75;100739.50;4992387;28;8811;-54
2021/05/29 08:59:14;;;;;;;;;2.00;2.00;;;;;19.84;38.55;100740.13;4997772;28;8820;-54
2021/05/29 09:01:40;;;;;;;;;2.00;2.00;;;;;19.85;38.68;100733.56;4991147;28;8917;-54
2021/05/29 09:04:07;;;;;;;;;2.00;2.00;;;;;19.75;38.72;100733.75;4993815;28;11137;-53
2021/05/29 09:06:32;;;;;;;;;1.80;1.80;;;;;19.69;38.78;100730.28;4992111;28;8799;-54
2021/05/29 09:08:59;;;;;;;;;1.00;1.00;;;;;19.71;38.92;100730.78;4992731;28;8807;-53
2021/05/29 09:11:49;;;;;;;;;2.00;2.00;;;;;19.70;38.81;100731.91;4994231;28;8831;-54
2021/05/29 09:14:23;;;;;;;;;2.00;2.00;;;;;19.71;38.83;100735.44;5000052;28;9540;-53
2021/05/29 09:17:16;;;;;;;;;1.20;1.20;;;;;19.70;38.83;100731.06;4984462;28;9579;-54
2021/05/29 09:20:04;;;;;;;;;2.00;2.00;;;;;19.67;38.80;100737.97;4990012;28;8820;-53
2021/05/29 09:22:36;;;;;;;;;1.80;1.80;;;;;19.66;39.00;100739.91;4992913;28;8783;-54
2021/05/29 09:25:08;;;;;;;;;1.00;1.00;;;;;19.67;38.83;100735.25;4994600;28;8820;-53
2021/05/29 09:27:35;;;;;;;;;2.40;2.00;;;;;19.68;38.67;100739.59;4994911;28;8795;-54
2021/05/29 09:30:05;;;;;;;;;2.00;2.00;;;;;19.66;38.76;100736.34;4990409;28;8823;-55
2021/05/29 09:32:33;;;;;;;;;2.00;2.00;;;;;19.68;38.78;100739.59;4995629;28;8911;-54
2021/05/29 09:35:03;;;;;;;;;2.00;2.00;;;;;19.68;38.75;100729.47;4995927;28;9538;-53
2021/05/29 09:37:29;;;;;;;;;2.00;2.00;;;;;19.72;38.68;100742.53;4994214;28;8810;-53
2021/05/29 09:40:00;;;;;;;;;2.25;2.25;;;;;19.79;38.55;100734.78;4991867;28;8839;-54
2021/05/29 09:42:27;;;;;;;;;2.00;2.00;;;;;19.80;38.43;100736.38;4991837;28;8799;-53
2021/05/29 09:44:54;;;;;;;;;2.00;2.00;;;;;19.66;38.79;100750.03;5000837;28;8909;-52
2021/05/29 09:47:19;;;;;;;;;2.00;2.00;;;;;19.66;38.92;100748.13;4995883;28;8824;-53
2021/05/29 09:49:51;;;;;;;;;4.00;2.60;;;;;19.65;38.84;100741.00;4998548;28;9528;-53
2021/05/29 09:52:37;;;;;;;;;2.00;2.00;;;;;19.67;38.76;100743.44;4997712;28;8800;-53
2021/05/29 09:55:11;;;;;;;;;2.60;2.60;;;;;19.65;38.83;100751.97;4994632;28;8862;-54
2021/05/29 09:57:53;;;;;;;;;2.00;2.00;;;;;19.63;38.90;100743.25;4996044;28;8799;-53
2021/05/29 10:00:19;;;;;;;;;2.00;2.00;;;;;19.68;38.82;100737.69;4992875;28;8798;-53
2021/05/29 10:02:59;;;;;;;;;2.00;2.00;;;;;19.63;38.90;100732.28;5013361;28;8816;-54
2021/05/29 10:05:29;;;;;;;;;2.00;2.00;;;;;19.61;38.90;100739.16;4976077;28;8815;-54
2021/05/29 10:07:55;;;;;;;;;2.00;2.00;;;;;19.61;38.79;100744.63;4992548;28;8772;-53
2021/05/29 10:10:20;;;;;;;;;2.50;2.50;;;;;19.61;38.84;100734.53;4982249;28;8811;-53
2021/05/29 10:12:46;;;;;;;;;2.00;2.00;;;;;19.60;38.84;100732.91;4985187;28;8918;-54
2021/05/29 10:15:12;;;;;;;;;1.50;1.50;;;;;19.67;38.86;100732.50;4990611;28;11454;-53
2021/05/29 10:17:39;;;;;;;;;3.00;3.00;;;;;19.65;38.81;100719.13;4996213;28;9489;-54
2021/05/29 10:20:06;;;;;;;;;2.40;2.40;;;;;19.75;38.51;100733.75;4990417;28;8811;-53
2021/05/29 10:22:32;;;;;;;;;2.60;2.60;;;;;19.81;38.44;100736.09;4992213;28;8947;-53
2021/05/29 10:24:58;;;;;;;;;2.00;2.00;;;;;19.68;38.54;100732.19;4997601;28;8889;-54
2021/05/29 10:27:28;;;;;;;;;2.00;2.00;;;;;19.82;38.41;100737.72;4990677;28;8872;-54
2021/05/29 10:29:57;;;;;;;;;2.40;2.40;;;;;19.84;38.51;100731.91;4991061;28;8795;-53
2021/05/29 10:32:22;;;;;;;;;3.00;2.80;;;;;19.67;38.47;100727.81;4997932;28;8806;-54
2021/05/29 10:35:00;;;;;;;;;2.00;2.00;;;;;19.73;38.66;100736.75;4993787;28;9669;-54
2021/05/29 10:37:30;;;;;;;;;1.60;1.60;;;;;19.83;38.44;100730.31;4995820;28;8835;-54
2021/05/29 10:40:14;;;;;;;;;1.00;1.00;;;;;19.82;38.52;100724.03;4997732;28;8816;-53
2021/05/29 10:42:40;;;;;;;;;2.00;2.00;;;;;19.59;38.77;100717.56;4995536;28;8799;-53
2021/05/29 10:45:24;;;;;;;;;2.00;2.00;;;;;19.74;38.58;100727.47;4995876;28;8834;-53
2021/05/29 10:47:59;;;;;;;;;2.00;2.00;;;;;19.71;38.41;100710.81;4995084;28;8788;-53
2021/05/29 10:53:45;;;;;;;;;2.00;2.00;;;;;19.80;38.48;100717.22;4971851;28;8837;-54
2021/05/29 10:56:20;;;;;;;;;2.00;2.00;;;;;19.81;38.34;100716.13;4992899;28;8824;-53
2021/05/29 10:59:15;;;;;;;;;2.00;2.00;;;;;19.81;38.37;100711.44;4994373;28;8822;-54
2021/05/29 11:01:42;;;;;;;;;1.80;1.80;;;;;19.79;38.55;100710.16;4993263;28;8803;-53
2021/05/29 11:04:25;;;;;;;;;2.40;2.40;;;;;19.78;38.41;100717.53;4992155;28;8850;-53
2021/05/29 11:06:55;;;;;;;;;3.00;3.00;;;;;19.66;38.62;100715.28;4990288;28;8788;-53
2021/05/29 11:09:46;;;;;;;;;2.00;2.00;;;;;19.61;38.80;100718.09;4985069;28;9006;-54
2021/05/29 11:12:12;;;;;;;;;2.00;2.00;;;;;19.64;38.63;100709.28;4977942;28;8810;-53
2021/05/29 11:14:53;;;;;;;;;1.60;1.60;;;;;19.54;38.60;100695.81;4991104;28;8831;-53
2021/05/29 11:17:23;;;;;;;;;2.00;2.00;;;;;19.62;38.65;100707.97;4990064;28;8832;-53
2021/05/29 11:20:13;;;;;;;;;2.00;2.00;;;;;19.59;38.67;100714.84;4995117;28;8834;-53
2021/05/29 11:22:47;;;;;;;;;2.00;2.00;;;;;19.65;38.69;100712.84;4994714;28;8775;-53
2021/05/29 11:25:15;;;;;;;;;1.60;1.60;;;;;19.61;38.68;100711.81;4992202;28;8796;-53
2021/05/29 11:27:42;;;;;;;;;2.00;2.00;;;;;19.63;38.78;100723.25;4993082;28;8779;-53
2021/05/29 11:30:21;;;;;;;;;2.00;2.00;;;;;19.61;38.76;100714.53;4987686;28;9558;-54
2021/05/29 11:35:35;;;;;;;;;1.00;1.00;;;;;19.60;38.83;100711.00;4974105;28;8929;-53
2021/05/29 11:38:13;;;;;;;;;2.00;2.00;;;;;19.60;38.73;100704.72;4991412;28;8775;-54
2021/05/29 11:40:42;;;;;;;;;3.00;3.00;;;;;19.63;38.68;100709.56;4991733;28;9670;-53
2021/05/29 11:43:08;;;;;;;;;3.00;3.00;;;;;19.62;38.78;100710.69;4997787;28;8775;-53
2021/05/29 11:45:34;;;;;;;;;2.00;2.00;;;;;19.60;38.72;100710.19;4988819;28;8810;-53
2021/05/29 11:48:00;;;;;;;;;2.00;2.00;;;;;19.60;38.79;100705.53;4973042;28;8877;-53
2021/05/29 11:50:25;;;;;;;;;2.00;2.00;;;;;19.58;38.96;100710.50;4976184;28;8825;-53
2021/05/29 11:52:52;;;;;;;;;2.00;2.00;;;;;19.59;38.82;100703.88;4991613;28;8947;-52